< < Back
Terminal Aerodrome Forecast


Current Version              Previous Versions:   1  2  3  4  5  6  7  8  9  

Terminal Aerodrome Forecast

903
FTUS44 KOHX 041120
TAFBNA
TAF
KBNA 041120Z 0412/0512 27007KT P6SM SCT050
     FM050000 01005KT P6SM BKN250=



Latest METAR

454
SAUS70 KWBC 041700 RRI
MTRBNA
METAR KBNA 041653Z VRB05KT 10SM FEW050 SCT065 SCT200 BKN250 34/19 A3002
RMK AO2 SLP157 T03390189


USA.gov is the U.S. government's official web portal to all federal, state and local government web resources and services.